Time;durP1;ratioP1;P1;durP2;ratioP2;P2;SDS_P1;SDS_P2;PMS_P1;PMS_P2;Temp;Humidity;BMP_temperature;BMP_pressure;BME280_temperature;BME280_humidity;BME280_pressure;Samples;Min_cycle;Max_cycle;Signal;HPM_P1;HPM_P2
2024/03/11 00:03:37;;;;;;;25.00;18.97;;;;;;;;;;6221916;23;20487;-87
2024/03/11 00:06:28;;;;;;;24.20;17.37;;;;;;;;;;6208807;23;20432;-86
2024/03/11 00:09:28;;;;;;;24.93;16.10;;;;;;;;;;6202408;23;20444;-87
2024/03/11 00:15:23;;;;;;;23.07;17.10;;;;;;;;;;6223683;23;20492;-85
2024/03/11 00:18:09;;;;;;;27.63;16.97;;;;;;;;;;6198236;23;20409;-89
2024/03/11 00:20:57;;;;;;;20.13;16.20;;;;;;;;;;6201999;23;20421;-88
2024/03/11 00:23:53;;;;;;;22.67;16.57;;;;;;;;;;6206025;23;20412;-88
2024/03/11 00:26:32;;;;;;;22.27;16.67;;;;;;;;;;6212134;23;20463;-85
2024/03/11 00:29:11;;;;;;;21.50;16.60;;;;;;;;;;6211899;23;20443;-87
2024/03/11 00:31:52;;;;;;;27.07;17.70;;;;;;;;;;6210039;23;20412;-86
2024/03/11 00:34:41;;;;;;;22.07;17.00;;;;;;;;;;6210926;23;20405;-87
2024/03/11 00:37:23;;;;;;;21.23;17.13;;;;;;;;;;6237638;23;20424;-86
2024/03/11 00:39:59;;;;;;;23.70;17.23;;;;;;;;;;6210511;23;20435;-87
2024/03/11 00:42:46;;;;;;;23.60;17.87;;;;;;;;;;6195695;23;20425;-88
2024/03/11 00:45:33;;;;;;;24.23;18.40;;;;;;;;;;6202274;23;20493;-87
2024/03/11 00:48:07;;;;;;;24.60;19.87;;;;;;;;;;6199911;23;20441;-87
2024/03/11 00:50:45;;;;;;;24.90;18.23;;;;;;;;;;6200901;23;20408;-88
2024/03/11 00:53:25;;;;;;;23.70;18.10;;;;;;;;;;6223460;23;20413;-87
2024/03/11 00:56:22;;;;;;;;;;;;;;;;;;;;;
2024/03/11 00:59:24;;;;;;;;;;;;;;;;;;;;;
2024/03/11 01:01:54;;;;;;;24.37;17.80;;;;;;;;;;6225012;23;20541;-86
2024/03/11 01:04:28;;;;;;;27.93;19.33;;;;;;;;;;6213557;23;20412;-89
2024/03/11 01:07:06;;;;;;;25.57;19.13;;;;;;;;;;6213254;23;20436;-88
2024/03/11 01:09:58;;;;;;;26.60;18.97;;;;;;;;;;6216333;23;20613;-88
2024/03/11 01:12:56;;;;;;;24.70;19.10;;;;;;;;;;6214959;23;20472;-88
2024/03/11 01:15:46;;;;;;;25.13;18.90;;;;;;;;;;6193078;23;20474;-85
2024/03/11 01:18:15;;;;;;;23.60;18.87;;;;;;;;;;6163339;23;20507;-88
2024/03/11 01:21:13;;;;;;;26.37;18.80;;;;;;;;;;6192974;23;20453;-88
2024/03/11 01:23:48;;;;;;;28.80;19.80;;;;;;;;;;6191499;23;20414;-86
2024/03/11 01:26:31;;;;;;;26.37;21.30;;;;;;;;;;6188097;23;20437;-87
2024/03/11 01:29:18;;;;;;;30.60;21.13;;;;;;;;;;6186391;23;20559;-87
2024/03/11 01:31:59;;;;;;;29.77;20.93;;;;;;;;;;6187033;23;20468;-88
2024/03/11 01:34:41;;;;;;;30.27;21.17;;;;;;;;;;6186114;23;20410;-87
2024/03/11 01:37:14;;;;;;;28.20;21.60;;;;;;;;;;6192308;23;20417;-88
2024/03/11 01:39:47;;;;;;;28.43;19.63;;;;;;;;;;6191113;23;20418;-87
2024/03/11 01:42:40;;;;;;;;;;;;;;;;;;;;;
2024/03/11 01:47:56;;;;;;;24.47;19.70;;;;;;;;;;6188573;23;20437;-86
2024/03/11 01:50:30;;;;;;;28.10;19.87;;;;;;;;;;6189090;23;20402;-87
2024/03/11 01:53:04;;;;;;;25.90;20.33;;;;;;;;;;6163569;23;20926;-87
2024/03/11 01:55:40;;;;;;;28.10;20.53;;;;;;;;;;6161318;23;20434;-87
2024/03/11 01:58:25;;;;;;;29.97;22.00;;;;;;;;;;6160333;23;20418;-86
2024/03/11 02:01:07;;;;;;;28.73;22.63;;;;;;;;;;6160321;23;20410;-87
2024/03/11 02:03:58;;;;;;;26.50;20.23;;;;;;;;;;6155651;23;20730;-87
2024/03/11 02:07:35;;;;;;;;;;;;;;;;;;;;;
2024/03/11 02:17:07;;;;;;;28.47;22.13;;;;;;;;;;6181432;23;20577;-86
2024/03/11 02:19:43;;;;;;;31.37;23.37;;;;;;;;;;6187435;23;20764;-87
2024/03/11 02:22:23;;;;;;;32.37;24.20;;;;;;;;;;6188451;23;20436;-88
2024/03/11 02:25:16;;;;;;;29.50;23.20;;;;;;;;;;6186821;23;20505;-87
2024/03/11 02:27:47;;;;;;;32.77;24.17;;;;;;;;;;6181351;23;20414;-85
2024/03/11 02:30:21;;;;;;;30.30;22.70;;;;;;;;;;6188033;23;20445;-88
2024/03/11 02:33:10;;;;;;;30.27;23.93;;;;;;;;;;6194050;23;20405;-87
2024/03/11 02:35:46;;;;;;;33.00;23.80;;;;;;;;;;6198705;23;20444;-85
2024/03/11 02:38:21;;;;;;;32.47;24.40;;;;;;;;;;6190094;23;21072;-86
2024/03/11 02:41:13;;;;;;;33.20;24.17;;;;;;;;;;6185091;23;20464;-88
2024/03/11 02:43:57;;;;;;;34.73;24.00;;;;;;;;;;6191667;23;20417;-87
2024/03/11 02:46:30;;;;;;;35.43;24.73;;;;;;;;;;6196695;23;20441;-89
2024/03/11 02:49:17;;;;;;;31.53;24.17;;;;;;;;;;6201893;23;20457;-87
2024/03/11 02:51:48;;;;;;;30.97;23.97;;;;;;;;;;6197433;23;20410;-87
2024/03/11 02:54:23;;;;;;;34.30;26.50;;;;;;;;;;6192981;23;20414;-87
2024/03/11 02:57:05;;;;;;;31.97;24.43;;;;;;;;;;6194531;23;20438;-87
2024/03/11 02:59:43;;;;;;;28.90;23.30;;;;;;;;;;6194198;23;20448;-86
2024/03/11 03:02:20;;;;;;;31.73;24.60;;;;;;;;;;6197679;23;20492;-88
2024/03/11 03:04:57;;;;;;;35.10;25.97;;;;;;;;;;6195853;23;20429;-86
2024/03/11 03:07:32;;;;;;;28.57;23.80;;;;;;;;;;6198852;23;20437;-86
2024/03/11 03:10:10;;;;;;;34.63;25.93;;;;;;;;;;6199621;23;20453;-87
2024/03/11 03:13:00;;;;;;;31.53;24.90;;;;;;;;;;6198839;23;20396;-89
2024/03/11 03:15:33;;;;;;;32.07;23.27;;;;;;;;;;6194410;23;20444;-87
2024/03/11 03:18:05;;;;;;;34.50;25.87;;;;;;;;;;6190881;23;20772;-88
2024/03/11 03:20:50;;;;;;;31.83;25.60;;;;;;;;;;6186951;23;20524;-86
2024/03/11 03:23:21;;;;;;;31.27;24.90;;;;;;;;;;6186740;23;20455;-86
2024/03/11 03:26:04;;;;;;;30.90;24.57;;;;;;;;;;6186202;23;20444;-87
2024/03/11 03:29:03;;;;;;;28.73;23.00;;;;;;;;;;6187216;23;20471;-85
2024/03/11 03:31:45;;;;;;;32.60;24.90;;;;;;;;;;6185199;23;20414;-87
2024/03/11 03:34:13;;;;;;;31.87;23.20;;;;;;;;;;6184071;23;20495;-89
2024/03/11 03:36:49;;;;;;;30.70;24.60;;;;;;;;;;6189131;23;20452;-87
2024/03/11 03:39:25;;;;;;;30.53;22.50;;;;;;;;;;6187446;23;20435;-85
2024/03/11 03:41:58;;;;;;;28.90;23.13;;;;;;;;;;6204525;23;20455;-89
2024/03/11 03:44:32;;;;;;;29.30;22.70;;;;;;;;;;6205708;23;20406;-87
2024/03/11 03:47:07;;;;;;;27.00;23.30;;;;;;;;;;6202263;23;20433;-86
2024/03/11 03:49:41;;;;;;;28.50;23.10;;;;;;;;;;6193246;23;20442;-86
2024/03/11 03:52:33;;;;;;;26.57;22.10;;;;;;;;;;6195868;23;20420;-86
2024/03/11 03:55:24;;;;;;;32.53;24.70;;;;;;;;;;6193390;23;20994;-86
2024/03/11 03:58:07;;;;;;;25.73;21.70;;;;;;;;;;6191117;23;20404;-86
2024/03/11 04:00:43;;;;;;;26.47;22.23;;;;;;;;;;6194339;23;20517;-86
2024/03/11 04:03:34;;;;;;;28.27;22.53;;;;;;;;;;6199462;23;20468;-85
2024/03/11 04:06:12;;;;;;;28.97;21.63;;;;;;;;;;6216287;23;20488;-88
2024/03/11 04:08:51;;;;;;;30.00;23.40;;;;;;;;;;6216832;23;20444;-87
2024/03/11 04:11:38;;;;;;;28.57;23.00;;;;;;;;;;6216947;23;20436;-88
2024/03/11 04:14:14;;;;;;;29.53;23.03;;;;;;;;;;6215622;23;20428;-90
2024/03/11 04:16:54;;;;;;;27.83;22.50;;;;;;;;;;6213721;23;20427;-87
2024/03/11 04:19:43;;;;;;;26.37;21.80;;;;;;;;;;6215679;23;20461;-87
2024/03/11 04:22:29;;;;;;;28.23;21.10;;;;;;;;;;6217180;23;20403;-89
2024/03/11 04:25:16;;;;;;;;;;;;;;;;;;;;;
2024/03/11 04:27:59;;;;;;;28.20;21.13;;;;;;;;;;6240273;23;20428;-88
2024/03/11 04:30:56;;;;;;;28.03;21.80;;;;;;;;;;6197341;23;20480;-87
2024/03/11 04:33:30;;;;;;;25.87;21.17;;;;;;;;;;6208624;23;20429;-87
2024/03/11 04:36:21;;;;;;;30.47;24.30;;;;;;;;;;6195330;23;20433;-85
2024/03/11 04:39:14;;;;;;;26.83;22.03;;;;;;;;;;6192108;23;20522;-85
2024/03/11 04:41:55;;;;;;;27.30;22.33;;;;;;;;;;6190837;23;20410;-87
2024/03/11 04:44:29;;;;;;;31.50;24.23;;;;;;;;;;6193926;23;20410;-87
2024/03/11 04:47:06;;;;;;;30.20;22.80;;;;;;;;;;6190128;23;20433;-87
2024/03/11 04:49:44;;;;;;;31.97;24.30;;;;;;;;;;6191009;23;20462;-86
2024/03/11 04:52:31;;;;;;;29.60;23.70;;;;;;;;;;6184513;23;20402;-85
2024/03/11 04:55:27;;;;;;;29.10;23.30;;;;;;;;;;6191246;23;20441;-85
2024/03/11 04:58:09;;;;;;;28.50;22.23;;;;;;;;;;6190744;23;20417;-87
2024/03/11 05:15:09;;;;;;;30.63;24.40;;;;;;;;;;6024382;22;6402632;-89
2024/03/11 05:17:48;;;;;;;35.77;25.07;;;;;;;;;;6284540;22;20223;-88
2024/03/11 05:20:19;;;;;;;30.13;23.30;;;;;;;;;;6291431;22;20662;-87
2024/03/11 05:23:06;;;;;;;28.70;21.20;;;;;;;;;;6287620;22;20423;-87
2024/03/11 05:25:52;;;;;;;25.77;20.17;;;;;;;;;;6297016;22;20430;-86
2024/03/11 05:35:32;;;;;;;28.43;21.23;;;;;;;;;;6291577;22;20386;-87
2024/03/11 05:38:09;;;;;;;27.07;21.17;;;;;;;;;;6291504;22;20422;-86
2024/03/11 05:40:47;;;;;;;26.97;20.60;;;;;;;;;;6290083;22;20438;-87
2024/03/11 05:43:17;;;;;;;34.87;23.97;;;;;;;;;;6291118;22;20400;-86
2024/03/11 05:48:38;;;;;;;35.53;24.93;;;;;;;;;;6250949;22;20791;-85
2024/03/11 05:51:20;;;;;;;32.60;25.20;;;;;;;;;;6265196;22;20501;-87
2024/03/11 05:57:26;;;;;;;30.93;24.03;;;;;;;;;;6253811;23;20407;-88
2024/03/11 06:00:04;;;;;;;35.00;25.57;;;;;;;;;;6240490;23;20411;-87
2024/03/11 06:02:59;;;;;;;;;;;;;;;;;;;;;
2024/03/11 06:05:39;;;;;;;34.33;24.57;;;;;;;;;;6260662;23;20495;-86
2024/03/11 06:08:13;;;;;;;35.87;27.50;;;;;;;;;;6261903;23;20407;-86
2024/03/11 06:17:41;;;;;;;32.93;23.60;;;;;;;;;;6329696;22;20424;-88
2024/03/11 06:23:05;;;;;;;31.43;23.83;;;;;;;;;;6315653;22;20433;-88
2024/03/11 06:25:53;;;;;;;27.83;21.23;;;;;;;;;;6292722;22;20480;-88
2024/03/11 06:34:37;;;;;;;27.70;20.30;;;;;;;;;;6326248;22;20444;-84
2024/03/11 06:40:45;;;;;;;33.80;25.33;;;;;;;;;;6319888;22;20532;-85
2024/03/11 06:43:29;;;;;;;32.80;23.67;;;;;;;;;;6295949;22;20382;-89
2024/03/11 06:46:01;;;;;;;32.10;22.93;;;;;;;;;;6290923;22;20446;-87
2024/03/11 06:48:56;;;;;;;36.47;25.77;;;;;;;;;;6290819;22;20410;-88
2024/03/11 06:51:58;;;;;;;32.10;24.17;;;;;;;;;;6306157;22;20406;-87
2024/03/11 06:54:48;;;;;;;28.23;22.07;;;;;;;;;;6293638;22;20390;-85
2024/03/11 06:57:46;;;;;;;24.27;18.83;;;;;;;;;;6296592;22;20399;-88
2024/03/11 07:00:25;;;;;;;23.93;16.83;;;;;;;;;;6295231;22;20438;-87
2024/03/11 07:03:05;;;;;;;19.20;15.07;;;;;;;;;;6303743;22;20398;-87
2024/03/11 07:06:02;;;;;;;19.87;14.70;;;;;;;;;;6301927;22;20475;-86
2024/03/11 07:08:56;;;;;;;12.87;11.27;;;;;;;;;;6311588;22;20401;-86
2024/03/11 07:11:46;;;;;;;9.70;6.83;;;;;;;;;;6313124;22;20387;-86
2024/03/11 07:17:35;;;;;;;5.57;4.30;;;;;;;;;;6314516;22;20409;-85
2024/03/11 07:20:19;;;;;;;4.83;3.60;;;;;;;;;;6314337;22;20493;-87
2024/03/11 07:23:18;;;;;;;4.00;3.30;;;;;;;;;;6319247;22;20464;-85
2024/03/11 07:26:07;;;;;;;4.70;3.90;;;;;;;;;;6316207;22;20460;-83
2024/03/11 07:28:59;;;;;;;4.97;3.70;;;;;;;;;;6315227;22;20394;-87
2024/03/11 07:31:40;;;;;;;3.70;3.30;;;;;;;;;;6218892;23;20428;-88
2024/03/11 07:34:21;;;;;;;3.20;2.83;;;;;;;;;;6267878;22;20508;-89
2024/03/11 07:37:09;;;;;;;3.13;2.83;;;;;;;;;;6312660;22;20460;-89
2024/03/11 07:39:57;;;;;;;2.87;2.57;;;;;;;;;;6312654;22;20465;-87
2024/03/11 07:42:56;;;;;;;2.80;2.50;;;;;;;;;;6315658;22;20481;-86
2024/03/11 07:45:49;;;;;;;4.33;3.57;;;;;;;;;;6299890;22;20426;-87
2024/03/11 07:48:33;;;;;;;3.50;3.20;;;;;;;;;;6312771;22;20394;-86
2024/03/11 07:51:27;;;;;;;;;;;;;;;;;;;;;
2024/03/11 07:54:35;;;;;;;2.70;2.50;;;;;;;;;;6315478;22;20393;-89
2024/03/11 08:00:39;;;;;;;2.27;2.07;;;;;;;;;;6301290;22;20450;-87
2024/03/11 08:03:42;;;;;;;3.00;2.57;;;;;;;;;;6313137;22;20405;-88
2024/03/11 08:06:30;;;;;;;2.67;2.47;;;;;;;;;;6301333;22;20417;-86
2024/03/11 08:22:58;;;;;;;3.73;2.50;;;;;;;;;;6095709;22;1361359;-86
2024/03/11 08:25:31;;;;;;;4.10;3.00;;;;;;;;;;6140496;23;20191;-88
2024/03/11 08:28:15;;;;;;;;;;;;;;;;;;;;;
2024/03/11 08:31:09;;;;;;;3.50;2.77;;;;;;;;;;6141158;23;20442;-87
2024/03/11 08:33:44;;;;;;;2.63;2.33;;;;;;;;;;6136588;23;20415;-87
2024/03/11 08:36:21;;;;;;;4.20;2.23;;;;;;;;;;6138563;23;20434;-87
2024/03/11 08:39:16;;;;;;;3.40;2.00;;;;;;;;;;6137209;23;20506;-87
2024/03/11 08:41:48;;;;;;;3.07;2.13;;;;;;;;;;6137115;23;20422;-85
2024/03/11 08:44:32;;;;;;;2.13;1.50;;;;;;;;;;6137988;23;20422;-88
2024/03/11 08:47:03;;;;;;;2.87;1.73;;;;;;;;;;6149555;23;20427;-86
2024/03/11 08:49:38;;;;;;;1.63;1.50;;;;;;;;;;6152544;23;20400;-89
2024/03/11 08:52:18;;;;;;;2.53;1.60;;;;;;;;;;6154572;23;20438;-89
2024/03/11 08:54:55;;;;;;;2.70;1.90;;;;;;;;;;6152733;23;20399;-88
2024/03/11 08:57:41;;;;;;;1.93;1.53;;;;;;;;;;6149076;23;20409;-88
2024/03/11 09:00:29;;;;;;;3.00;1.80;;;;;;;;;;6142965;23;20419;-88
2024/03/11 09:03:15;;;;;;;2.30;2.10;;;;;;;;;;6143141;23;20403;-85
2024/03/11 09:06:04;;;;;;;5.13;3.20;;;;;;;;;;6143070;23;20494;-87
2024/03/11 09:08:54;;;;;;;4.63;2.90;;;;;;;;;;6148500;23;20411;-88
2024/03/11 09:12:00;;;;;;;3.73;2.93;;;;;;;;;;6137766;23;20461;-88
2024/03/11 09:17:20;;;;;;;2.20;1.83;;;;;;;;;;6144079;23;20487;-88
2024/03/11 09:19:54;;;;;;;1.70;1.60;;;;;;;;;;6090914;23;20400;-88
2024/03/11 09:22:33;;;;;;;2.00;1.60;;;;;;;;;;6081854;23;20459;-85
2024/03/11 09:25:17;;;;;;;2.30;1.57;;;;;;;;;;6081681;23;20447;-87
2024/03/11 09:28:04;;;;;;;2.07;1.43;;;;;;;;;;6079244;23;20440;-86
2024/03/11 09:30:46;;;;;;;2.13;1.50;;;;;;;;;;6077393;23;20524;-89
2024/03/11 09:33:27;;;;;;;1.43;1.23;;;;;;;;;;6082529;23;20412;-86
2024/03/11 09:36:19;;;;;;;2.07;1.20;;;;;;;;;;6078060;23;20523;-87
2024/03/11 09:38:50;;;;;;;2.60;1.60;;;;;;;;;;6081802;23;20464;-87
2024/03/11 09:41:22;;;;;;;1.93;1.17;;;;;;;;;;6082653;23;20431;-86
2024/03/11 09:44:02;;;;;;;2.10;1.37;;;;;;;;;;6082386;23;20416;-88
2024/03/11 09:46:50;;;;;;;1.87;1.20;;;;;;;;;;6086440;23;20475;-86
2024/03/11 09:49:36;;;;;;;2.00;1.77;;;;;;;;;;6086634;23;20437;-86
2024/03/11 09:52:24;;;;;;;2.97;1.57;;;;;;;;;;6083077;23;20479;-86
2024/03/11 09:54:58;;;;;;;2.90;1.70;;;;;;;;;;6085638;23;20434;-88
2024/03/11 09:57:32;;;;;;;1.90;1.30;;;;;;;;;;6094908;23;20397;-87
2024/03/11 10:00:48;;;;;;;4.23;2.10;;;;;;;;;;6097597;23;20404;-88
2024/03/11 10:03:20;;;;;;;1.57;1.47;;;;;;;;;;6036399;23;20421;-88
2024/03/11 10:08:50;;;;;;;2.47;1.00;;;;;;;;;;6142010;23;20459;-89
2024/03/11 10:11:21;;;;;;;1.80;1.00;;;;;;;;;;6140227;23;20447;-86
2024/03/11 10:14:37;;;;;;;1.13;1.07;;;;;;;;;;6081905;23;20392;-88
2024/03/11 10:17:43;;;;;;;1.67;1.13;;;;;;;;;;6161612;23;20450;-87
2024/03/11 10:20:29;;;;;;;2.07;1.10;;;;;;;;;;6159163;23;20407;-84
2024/03/11 10:23:09;;;;;;;3.63;1.63;;;;;;;;;;6133067;23;20425;-87
2024/03/11 10:25:46;;;;;;;3.20;1.50;;;;;;;;;;6130827;23;20438;-86
2024/03/11 10:28:49;;;;;;;1.43;0.97;;;;;;;;;;6135803;23;20459;-87
2024/03/11 10:31:33;;;;;;;1.00;0.90;;;;;;;;;;6113856;23;20561;-86
2024/03/11 10:34:24;;;;;;;1.13;1.00;;;;;;;;;;6145729;23;20804;-87
2024/03/11 10:37:05;;;;;;;1.13;1.00;;;;;;;;;;6135526;23;20443;-85
2024/03/11 10:39:43;;;;;;;0.60;0.60;;;;;;;;;;6137379;23;20422;-89
2024/03/11 10:42:34;;;;;;;1.80;0.70;;;;;;;;;;6139934;23;20415;-85
2024/03/11 10:45:36;;;;;;;0.70;0.70;;;;;;;;;;6128402;23;20469;-85
2024/03/11 10:48:13;;;;;;;1.40;1.07;;;;;;;;;;6131492;23;20959;-84
2024/03/11 10:50:51;;;;;;;2.00;0.90;;;;;;;;;;6106847;23;20650;-86
2024/03/11 10:53:26;;;;;;;1.27;1.00;;;;;;;;;;6131838;23;20915;-87
2024/03/11 10:56:07;;;;;;;0.80;0.73;;;;;;;;;;6111484;23;20554;-85
2024/03/11 10:59:04;;;;;;;0.90;0.90;;;;;;;;;;6094941;23;20417;-89
2024/03/11 11:01:39;;;;;;;0.93;0.93;;;;;;;;;;6099913;23;20582;-87
2024/03/11 11:04:19;;;;;;;1.13;0.80;;;;;;;;;;6098195;23;20436;-85
2024/03/11 11:06:51;;;;;;;0.97;0.93;;;;;;;;;;6099985;23;20432;-89
2024/03/11 11:09:24;;;;;;;1.97;1.20;;;;;;;;;;6099925;23;20435;-87
2024/03/11 11:11:54;;;;;;;1.57;0.93;;;;;;;;;;6101382;23;20452;-85
2024/03/11 11:14:40;;;;;;;1.50;1.27;;;;;;;;;;6097703;23;20433;-88
2024/03/11 11:17:09;;;;;;;2.00;1.00;;;;;;;;;;6098951;23;20436;-86
2024/03/11 11:23:02;;;;;;;1.20;0.90;;;;;;;;;;6090755;23;20887;-87
2024/03/11 11:28:25;;;;;;;5.20;2.40;;;;;;;;;;6130296;23;20491;-88
2024/03/11 11:31:11;;;;;;;2.33;1.20;;;;;;;;;;6127696;23;20420;-87
2024/03/11 11:33:53;;;;;;;1.50;1.10;;;;;;;;;;6130034;23;20456;-87
2024/03/11 11:36:32;;;;;;;2.07;1.27;;;;;;;;;;6127452;23;20439;-85
2024/03/11 11:39:35;;;;;;;5.17;1.37;;;;;;;;;;6128558;23;20471;-87
2024/03/11 11:42:06;;;;;;;1.40;1.30;;;;;;;;;;6133382;23;20412;-86
2024/03/11 11:44:38;;;;;;;1.30;1.10;;;;;;;;;;6126653;23;20414;-88
2024/03/11 11:47:19;;;;;;;2.27;1.20;;;;;;;;;;6129240;23;20510;-88
2024/03/11 11:50:01;;;;;;;3.83;1.57;;;;;;;;;;6126077;23;20408;-87
2024/03/11 11:52:31;;;;;;;1.53;1.43;;;;;;;;;;6127996;23;20443;-89
2024/03/11 11:55:07;;;;;;;1.30;1.13;;;;;;;;;;6128083;23;20477;-87
2024/03/11 11:57:44;;;;;;;1.70;1.20;;;;;;;;;;6128539;23;20396;-86
2024/03/11 12:00:18;;;;;;;0.97;0.97;;;;;;;;;;6127594;23;20798;-90
2024/03/11 12:03:04;;;;;;;1.70;1.10;;;;;;;;;;6128350;23;20430;-87
2024/03/11 12:05:42;;;;;;;1.50;1.07;;;;;;;;;;6131619;23;20818;-87
2024/03/11 12:08:36;;;;;;;3.03;1.23;;;;;;;;;;6132038;23;20466;-87
2024/03/11 12:11:15;;;;;;;1.30;1.20;;;;;;;;;;6131580;23;20462;-88
2024/03/11 12:13:55;;;;;;;2.60;1.47;;;;;;;;;;6127115;23;20763;-86
2024/03/11 12:16:43;;;;;;;1.27;1.17;;;;;;;;;;6129072;23;20419;-87
2024/03/11 12:19:27;;;;;;;0.97;0.90;;;;;;;;;;6130205;23;20427;-87
2024/03/11 12:22:02;;;;;;;1.50;1.00;;;;;;;;;;6135839;23;20415;-87
2024/03/11 12:24:33;;;;;;;1.27;1.17;;;;;;;;;;6137282;23;20427;-87
2024/03/11 12:27:20;;;;;;;1.30;1.20;;;;;;;;;;6133956;23;20511;-88
2024/03/11 12:30:09;;;;;;;2.60;1.17;;;;;;;;;;6139742;23;20418;-89
2024/03/11 12:33:06;;;;;;;1.50;1.40;;;;;;;;;;6134388;23;20439;-90
2024/03/11 12:35:52;;;;;;;2.73;1.53;;;;;;;;;;6100582;23;20463;-86
2024/03/11 12:38:32;;;;;;;1.70;1.40;;;;;;;;;;6130951;23;20929;-85
2024/03/11 12:41:23;;;;;;;1.23;1.13;;;;;;;;;;6088844;23;20412;-88
2024/03/11 12:44:13;;;;;;;1.70;1.10;;;;;;;;;;6112088;23;20455;-86
2024/03/11 12:46:50;;;;;;;0.93;0.93;;;;;;;;;;6140803;23;20431;-85
2024/03/11 12:49:20;;;;;;;2.13;1.20;;;;;;;;;;6138564;23;20425;-84
2024/03/11 12:52:17;;;;;;;1.10;0.93;;;;;;;;;;6110240;23;20490;-89
2024/03/11 12:54:50;;;;;;;1.40;1.27;;;;;;;;;;6110932;23;20396;-87
2024/03/11 12:57:30;;;;;;;1.83;1.03;;;;;;;;;;6110128;23;20870;-86
2024/03/11 13:00:21;;;;;;;1.70;1.13;;;;;;;;;;6119844;23;20417;-88
2024/03/11 13:03:08;;;;;;;0.77;0.70;;;;;;;;;;6120949;23;20416;-85
2024/03/11 13:05:59;;;;;;;0.90;0.70;;;;;;;;;;6122065;23;20451;-86
2024/03/11 13:08:41;;;;;;;1.13;0.70;;;;;;;;;;6128809;23;20420;-89
2024/03/11 13:11:15;;;;;;;2.27;1.10;;;;;;;;;;6125709;23;20904;-90
2024/03/11 13:13:46;;;;;;;2.37;1.00;;;;;;;;;;6140937;23;20422;-85
2024/03/11 13:16:28;;;;;;;2.93;1.00;;;;;;;;;;6112328;23;20433;-86
2024/03/11 13:19:01;;;;;;;3.20;1.73;;;;;;;;;;6108252;23;20490;-85
2024/03/11 13:21:39;;;;;;;1.53;1.23;;;;;;;;;;6110172;23;20423;-86
2024/03/11 13:24:32;;;;;;;1.70;1.53;;;;;;;;;;6082067;23;20447;-86
2024/03/11 13:27:02;;;;;;;1.60;1.50;;;;;;;;;;6133112;23;20470;-85
2024/03/11 13:29:43;;;;;;;1.50;1.40;;;;;;;;;;6133444;23;20471;-85
2024/03/11 13:32:20;;;;;;;1.77;1.60;;;;;;;;;;6106288;23;20447;-87
2024/03/11 13:35:04;;;;;;;3.93;1.67;;;;;;;;;;6086313;23;20422;-86
2024/03/11 13:38:03;;;;;;;2.03;1.20;;;;;;;;;;6143362;23;20462;-86
2024/03/11 13:40:38;;;;;;;1.87;1.57;;;;;;;;;;6123910;23;20403;-89
2024/03/11 13:43:16;;;;;;;1.77;1.67;;;;;;;;;;6125408;23;20416;-87
2024/03/11 13:46:20;;;;;;;0.97;0.90;;;;;;;;;;6118638;23;20442;-87
2024/03/11 13:48:56;;;;;;;1.33;1.23;;;;;;;;;;6140378;23;20499;-89
2024/03/11 13:51:53;;;;;;;1.17;1.07;;;;;;;;;;6097019;23;20514;-87
2024/03/11 13:54:33;;;;;;;1.00;0.90;;;;;;;;;;6112700;23;20419;-86
2024/03/11 13:57:11;;;;;;;3.00;1.10;;;;;;;;;;6123019;23;20428;-87
2024/03/11 13:59:47;;;;;;;4.67;1.30;;;;;;;;;;6114537;23;20483;-86
2024/03/11 14:02:46;;;;;;;1.40;1.00;;;;;;;;;;6126031;23;20396;-87
2024/03/11 14:05:36;;;;;;;1.40;1.30;;;;;;;;;;6126339;23;20550;-87
2024/03/11 14:08:18;;;;;;;1.83;1.33;;;;;;;;;;6093067;23;20447;-85
2024/03/11 14:10:56;;;;;;;1.83;1.17;;;;;;;;;;6109543;23;20483;-86
2024/03/11 14:13:29;;;;;;;1.57;1.47;;;;;;;;;;6104743;23;20482;-87
2024/03/11 14:16:15;;;;;;;2.27;1.20;;;;;;;;;;6109578;23;20498;-84
2024/03/11 14:18:57;;;;;;;3.73;1.60;;;;;;;;;;6088126;23;20439;-85
2024/03/11 14:21:57;;;;;;;2.07;1.30;;;;;;;;;;6133928;23;20415;-86
2024/03/11 14:24:41;;;;;;;2.80;1.90;;;;;;;;;;6106128;23;20428;-86
2024/03/11 14:27:21;;;;;;;1.10;1.10;;;;;;;;;;6104331;23;20404;-86
2024/03/11 14:30:03;;;;;;;1.40;0.97;;;;;;;;;;6130093;23;20484;-87
2024/03/11 14:32:47;;;;;;;1.90;1.40;;;;;;;;;;6106532;23;20466;-85
2024/03/11 14:35:18;;;;;;;1.50;1.33;;;;;;;;;;6101464;23;20440;-86
2024/03/11 14:37:55;;;;;;;1.73;1.40;;;;;;;;;;6103485;23;20419;-88
2024/03/11 14:40:41;;;;;;;1.70;1.60;;;;;;;;;;6138532;23;20412;-90
2024/03/11 14:46:38;;;;;;;1.37;0.97;;;;;;;;;;6142316;23;20436;-88
2024/03/11 14:49:23;;;;;;;1.50;1.17;;;;;;;;;;6119148;23;20408;-86
2024/03/11 14:51:56;;;;;;;2.27;1.47;;;;;;;;;;6105930;23;20437;-88
2024/03/11 14:54:25;;;;;;;1.13;1.00;;;;;;;;;;6109493;23;20404;-86
2024/03/11 14:56:56;;;;;;;1.33;1.00;;;;;;;;;;6105862;23;20731;-87
2024/03/11 14:59:34;;;;;;;2.83;1.67;;;;;;;;;;6102791;23;20475;-88
2024/03/11 15:02:09;;;;;;;2.33;1.53;;;;;;;;;;6105637;23;20424;-86
2024/03/11 15:04:40;;;;;;;2.53;2.33;;;;;;;;;;6108192;23;20411;-86
2024/03/11 15:07:12;;;;;;;2.20;1.40;;;;;;;;;;6108156;23;20432;-86
2024/03/11 15:09:43;;;;;;;1.60;1.50;;;;;;;;;;6108822;23;21023;-86
2024/03/11 15:12:27;;;;;;;;;;;;;;;;;;;;;
2024/03/11 15:14:59;;;;;;;3.60;1.40;;;;;;;;;;6130370;23;20411;-88
2024/03/11 15:17:36;;;;;;;1.23;1.13;;;;;;;;;;6132053;23;20425;-88
2024/03/11 15:20:07;;;;;;;1.43;1.33;;;;;;;;;;6108626;23;20431;-86
2024/03/11 15:22:37;;;;;;;2.00;1.27;;;;;;;;;;6108279;23;20809;-87
2024/03/11 15:25:24;;;;;;;3.50;1.40;;;;;;;;;;6104785;23;20486;-88
2024/03/11 15:28:00;;;;;;;2.07;1.93;;;;;;;;;;6107350;23;20459;-89
2024/03/11 15:30:33;;;;;;;1.10;1.00;;;;;;;;;;6113362;23;20404;-85
2024/03/11 15:33:31;;;;;;;1.17;0.90;;;;;;;;;;6129752;23;20539;-87
2024/03/11 15:36:04;;;;;;;1.57;1.47;;;;;;;;;;6105935;23;20436;-87
2024/03/11 15:38:37;;;;;;;1.37;1.07;;;;;;;;;;6104834;23;20411;-89
2024/03/11 15:41:13;;;;;;;1.53;1.23;;;;;;;;;;6108278;23;20442;-85
2024/03/11 15:43:41;;;;;;;1.30;1.20;;;;;;;;;;6109627;23;20482;-86
2024/03/11 15:46:18;;;;;;;1.60;1.50;;;;;;;;;;6104634;23;20435;-88
2024/03/11 15:48:59;;;;;;;3.50;0.90;;;;;;;;;;6107874;23;20435;-86
2024/03/11 15:51:44;;;;;;;1.80;1.10;;;;;;;;;;6106738;23;20430;-86
2024/03/11 15:54:28;;;;;;;2.37;1.13;;;;;;;;;;6109464;23;20392;-87
2024/03/11 15:56:58;;;;;;;3.27;1.50;;;;;;;;;;6105867;23;20456;-84
2024/03/11 15:59:32;;;;;;;3.20;1.17;;;;;;;;;;6111704;23;20420;-88
2024/03/11 16:02:10;;;;;;;1.60;1.20;;;;;;;;;;6123575;23;20434;-88
2024/03/11 16:04:45;;;;;;;1.30;1.20;;;;;;;;;;6120271;23;20435;-88
2024/03/11 16:07:24;;;;;;;1.93;1.30;;;;;;;;;;6109070;23;20439;-87
2024/03/11 16:10:22;;;;;;;1.27;1.17;;;;;;;;;;6108177;23;21359;-84
2024/03/11 16:12:59;;;;;;;1.87;1.23;;;;;;;;;;6104950;23;20538;-87
2024/03/11 16:15:43;;;;;;;4.60;1.80;;;;;;;;;;6107437;23;20431;-87
2024/03/11 16:18:20;;;;;;;1.33;1.13;;;;;;;;;;6105200;23;20419;-86
2024/03/11 16:21:02;;;;;;;1.70;1.20;;;;;;;;;;6101522;23;20410;-87
2024/03/11 16:23:34;;;;;;;1.83;1.67;;;;;;;;;;6112771;23;20435;-88
2024/03/11 16:26:22;;;;;;;2.23;2.10;;;;;;;;;;6119676;23;20430;-88
2024/03/11 16:29:03;;;;;;;2.70;2.33;;;;;;;;;;6112881;23;20427;-87
2024/03/11 16:31:35;;;;;;;3.97;2.37;;;;;;;;;;6110983;23;20467;-87
2024/03/11 16:34:12;;;;;;;3.00;2.70;;;;;;;;;;6110536;23;20434;-87
2024/03/11 16:36:50;;;;;;;4.20;2.90;;;;;;;;;;6110011;23;20432;-87
2024/03/11 16:39:30;;;;;;;4.60;3.27;;;;;;;;;;6084981;23;20427;-87
2024/03/11 16:42:03;;;;;;;2.20;2.00;;;;;;;;;;6103564;23;20416;-88
2024/03/11 16:44:36;;;;;;;3.70;2.60;;;;;;;;;;6104640;23;20434;-86
2024/03/11 16:47:04;;;;;;;4.03;3.63;;;;;;;;;;6104149;23;20474;-88
2024/03/11 16:49:33;;;;;;;3.40;2.80;;;;;;;;;;6103579;23;20412;-90
2024/03/11 16:52:06;;;;;;;4.27;2.50;;;;;;;;;;6111064;23;20431;-88
2024/03/11 16:54:38;;;;;;;3.77;3.37;;;;;;;;;;6106467;23;20459;-88
2024/03/11 16:57:08;;;;;;;3.00;2.70;;;;;;;;;;6102657;23;20545;-87
2024/03/11 16:59:39;;;;;;;2.70;2.40;;;;;;;;;;6103762;23;20427;-88
2024/03/11 17:02:08;;;;;;;3.77;2.80;;;;;;;;;;6106130;23;20431;-90
2024/03/11 17:04:36;;;;;;;4.30;3.03;;;;;;;;;;6105491;23;20416;-87
2024/03/11 17:07:40;;;;;;;3.80;3.00;;;;;;;;;;5109405;27;20332;-90
2024/03/11 17:10:23;;;;;;;4.10;3.10;;;;;;;;;;5074473;28;20431;-87
2024/03/11 17:12:55;;;;;;;3.57;3.20;;;;;;;;;;5092427;28;20443;-88
2024/03/11 17:15:40;;;;;;;4.60;2.60;;;;;;;;;;5092354;28;20470;-86
2024/03/11 17:18:29;;;;;;;5.53;3.13;;;;;;;;;;5102929;28;20465;-86
2024/03/11 17:21:01;;;;;;;4.50;2.40;;;;;;;;;;5103225;28;20490;-90
2024/03/11 17:23:30;;;;;;;3.63;2.50;;;;;;;;;;5098582;28;20451;-89
2024/03/11 17:25:59;;;;;;;3.10;2.70;;;;;;;;;;5098246;28;20477;-89
2024/03/11 17:28:38;;;;;;;2.90;2.60;;;;;;;;;;5101874;28;20490;-88
2024/03/11 17:31:21;;;;;;;3.77;3.40;;;;;;;;;;5110853;28;20469;-89
2024/03/11 17:34:01;;;;;;;3.10;2.67;;;;;;;;;;5118915;27;20465;-90
2024/03/11 17:36:32;;;;;;;3.37;2.50;;;;;;;;;;5105313;28;20530;-90
2024/03/11 17:39:26;;;;;;;2.30;2.00;;;;;;;;;;5101404;28;20458;-89
2024/03/11 17:42:13;;;;;;;3.10;2.40;;;;;;;;;;5102571;27;20460;-89
2024/03/11 17:45:23;;;;;;;5.10;2.93;;;;;;;;;;5077372;27;3207146;-88